Time;durP1;ratioP1;P1;durP2;ratioP2;P2;SDS_P1;SDS_P2;PMS_P1;PMS_P2;Temp;Humidity;BMP_temperature;BMP_pressure;BME280_temperature;BME280_humidity;BME280_pressure;Samples;Min_cycle;Max_cycle;Signal;HPM_P1;HPM_P2
2022/09/12 00:01:47;;;;;;;;;;;15.30;99.90;;;;;;4983724;28;20021;-72
2022/09/12 00:04:13;;;;;;;;;;;15.30;99.90;;;;;;4982695;28;20340;-72
2022/09/12 00:06:38;;;;;;;;;;;15.20;99.90;;;;;;4982459;28;19926;-74
2022/09/12 00:09:08;;;;;;;;;;;15.20;99.90;;;;;;4983670;28;19925;-74
2022/09/12 00:11:34;;;;;;;;;;;15.20;99.90;;;;;;4983481;28;20016;-74
2022/09/12 00:14:00;;;;;;;;;;;15.20;99.90;;;;;;4983084;28;19972;-74
2022/09/12 00:16:27;;;;;;;;;;;15.10;99.90;;;;;;4983784;28;19926;-74
2022/09/12 00:18:52;;;;;;;;;;;15.10;99.90;;;;;;4982899;28;20307;-74
2022/09/12 00:21:19;;;;;;;;;;;15.10;99.90;;;;;;4983884;28;19925;-75
2022/09/12 00:23:44;;;;;;;;;;;15.00;99.90;;;;;;4983275;28;19925;-74
2022/09/12 00:26:10;;;;;;;;;;;15.00;99.90;;;;;;4982881;28;19921;-74
2022/09/12 00:28:36;;;;;;;;;;;15.00;99.90;;;;;;4982380;28;19981;-75
2022/09/12 00:31:04;;;;;;;;;;;15.00;99.90;;;;;;4983977;28;19928;-75
2022/09/12 00:33:30;;;;;;;;;;;15.00;99.90;;;;;;4983845;28;20146;-74
2022/09/12 00:35:55;;;;;;;;;;;15.00;99.90;;;;;;4970187;28;19930;-74
2022/09/12 00:38:21;;;;;;;;;;;15.00;99.90;;;;;;4962871;28;19922;-74
2022/09/12 00:40:47;;;;;;;;;;;14.90;99.90;;;;;;4962740;28;19933;-74
2022/09/12 00:43:31;;;;;;;;;;;15.00;99.90;;;;;;4964660;28;19926;-74
2022/09/12 00:45:57;;;;;;;;;;;14.90;99.90;;;;;;4963394;28;19981;-74
2022/09/12 00:48:27;;;;;;;;;;;14.90;99.90;;;;;;4964173;28;19926;-74
2022/09/12 00:50:52;;;;;;;;;;;14.90;99.90;;;;;;4965046;28;19926;-74
2022/09/12 00:53:18;;;;;;;;;;;14.90;99.90;;;;;;4999403;28;19926;-74
2022/09/12 00:55:45;;;;;;;;;;;14.90;99.90;;;;;;4967567;28;19949;-74
2022/09/12 00:58:13;;;;;;;;;;;14.90;99.90;;;;;;4967145;28;19926;-74
2022/09/12 01:00:38;;;;;;;;;;;14.90;99.90;;;;;;4966488;28;20400;-74
2022/09/12 01:03:10;;;;;;;;;;;14.90;99.90;;;;;;4970955;28;19933;-74
2022/09/12 01:05:38;;;;;;;;;;;14.80;99.90;;;;;;4987418;28;19930;-74
2022/09/12 01:08:04;;;;;;;;;;;14.80;99.90;;;;;;4987231;28;20376;-74
2022/09/12 01:10:30;;;;;;;;;;;14.70;99.90;;;;;;4987177;28;19977;-74
2022/09/12 01:12:56;;;;;;;;;;;14.70;99.90;;;;;;4985238;28;19976;-75
2022/09/12 01:15:21;;;;;;;;;;;14.70;99.90;;;;;;4986880;28;20376;-74
2022/09/12 01:17:53;;;;;;;;;;;14.70;99.90;;;;;;4986975;28;20019;-74
2022/09/12 01:20:32;;;;;;;;;;;14.70;99.90;;;;;;4987006;28;19925;-74
2022/09/12 01:23:16;;;;;;;;;;;14.70;99.90;;;;;;4987305;28;20396;-74
2022/09/12 01:25:50;;;;;;;;;;;14.70;99.90;;;;;;4985281;28;19981;-74
2022/09/12 01:28:34;;;;;;;;;;;14.60;99.90;;;;;;4986231;28;19988;-74
2022/09/12 01:31:04;;;;;;;;;;;14.60;99.90;;;;;;4987027;28;19927;-75
2022/09/12 01:33:33;;;;;;;;;;;14.60;99.90;;;;;;4985563;28;19930;-75
2022/09/12 01:36:14;;;;;;;;;;;14.60;99.90;;;;;;4972391;28;19945;-74
2022/09/12 01:38:59;;;;;;;;;;;14.50;99.90;;;;;;4965713;28;19927;-74
2022/09/12 01:41:38;;;;;;;;;;;14.50;99.90;;;;;;4983618;28;20455;-74
2022/09/12 01:44:11;;;;;;;;;;;14.50;99.90;;;;;;4984444;28;19925;-74
2022/09/12 01:46:41;;;;;;;;;;;14.40;99.90;;;;;;4986297;28;19984;-74
2022/09/12 01:49:11;;;;;;;;;;;14.40;99.90;;;;;;4983856;28;20398;-74
2022/09/12 01:51:52;;;;;;;;;;;14.40;99.90;;;;;;4986181;28;20341;-74
2022/09/12 01:54:20;;;;;;;;;;;14.40;99.90;;;;;;4986486;28;20017;-74
2022/09/12 01:56:47;;;;;;;;;;;14.40;99.90;;;;;;4984301;28;19928;-74
2022/09/12 01:59:18;;;;;;;;;;;14.40;99.90;;;;;;4986320;28;19980;-74
2022/09/12 02:02:05;;;;;;;;;;;14.40;99.90;;;;;;4978707;28;19927;-74
2022/09/12 02:04:33;;;;;;;;;;;14.40;99.90;;;;;;4965083;28;19933;-75
2022/09/12 02:07:03;;;;;;;;;;;14.40;99.90;;;;;;4967128;28;19922;-74
2022/09/12 02:09:40;;;;;;;;;;;14.40;99.90;;;;;;4981973;28;19980;-74
2022/09/12 02:12:08;;;;;;;;;;;14.40;99.90;;;;;;4965974;28;20410;-75
2022/09/12 02:14:36;;;;;;;;;;;14.30;99.90;;;;;;4966728;28;19942;-74
2022/09/12 02:17:07;;;;;;;;;;;14.30;99.90;;;;;;4967025;28;19922;-74
2022/09/12 02:19:35;;;;;;;;;;;14.30;99.90;;;;;;4966131;28;19926;-74
2022/09/12 02:22:02;;;;;;;;;;;14.30;99.90;;;;;;4966458;28;20021;-74
2022/09/12 02:24:30;;;;;;;;;;;14.30;99.90;;;;;;4967082;28;19930;-74
2022/09/12 02:26:58;;;;;;;;;;;14.30;99.90;;;;;;4966131;28;19922;-75
2022/09/12 02:29:24;;;;;;;;;;;14.30;99.90;;;;;;4966508;28;20321;-74
2022/09/12 02:32:02;;;;;;;;;;;14.30;99.90;;;;;;4966022;28;20007;-74
2022/09/12 02:34:40;;;;;;;;;;;14.30;99.90;;;;;;4967541;28;20347;-74
2022/09/12 02:37:24;;;;;;;;;;;14.30;99.90;;;;;;4964815;28;19972;-74
2022/09/12 02:39:53;;;;;;;;;;;14.30;99.90;;;;;;4996926;28;19985;-74
2022/09/12 02:42:19;;;;;;;;;;;14.30;99.90;;;;;;4965051;28;20573;-74
2022/09/12 02:44:45;;;;;;;;;;;14.30;99.90;;;;;;4965761;28;19968;-75
2022/09/12 02:47:24;;;;;;;;;;;14.30;99.90;;;;;;4966079;28;20361;-75
2022/09/12 02:49:50;;;;;;;;;;;14.30;99.90;;;;;;4966004;28;19930;-74
2022/09/12 02:52:15;;;;;;;;;;;14.30;99.90;;;;;;4966321;28;19930;-74
2022/09/12 02:54:41;;;;;;;;;;;14.30;99.90;;;;;;4966727;28;19938;-74
2022/09/12 02:57:14;;;;;;;;;;;14.30;99.90;;;;;;4965317;28;19926;-75
2022/09/12 02:59:39;;;;;;;;;;;14.30;99.90;;;;;;4965460;28;20444;-74
2022/09/12 03:02:17;;;;;;;;;;;14.20;99.90;;;;;;4965784;28;19930;-74
2022/09/12 03:04:45;;;;;;;;;;;14.20;99.90;;;;;;4965559;28;20313;-75
2022/09/12 03:07:20;;;;;;;;;;;14.20;99.90;;;;;;4965569;28;20627;-74
2022/09/12 03:10:04;;;;;;;;;;;14.20;99.90;;;;;;4964234;28;19981;-74
2022/09/12 03:12:40;;;;;;;;;;;14.20;99.90;;;;;;4964922;28;19992;-75
2022/09/12 03:15:26;;;;;;;;;;;14.20;99.90;;;;;;4965141;28;20305;-75
2022/09/12 03:18:05;;;;;;;;;;;14.10;99.90;;;;;;4965350;28;19926;-74
2022/09/12 03:20:49;;;;;;;;;;;14.10;99.90;;;;;;4965282;28;20292;-75
2022/09/12 03:23:20;;;;;;;;;;;14.10;99.90;;;;;;4996774;28;19927;-75
2022/09/12 03:25:50;;;;;;;;;;;14.10;99.90;;;;;;4964012;28;19933;-74
2022/09/12 03:28:16;;;;;;;;;;;14.00;99.90;;;;;;4964663;28;19929;-74
2022/09/12 03:30:43;;;;;;;;;;;14.00;99.90;;;;;;4965047;28;19933;-74
2022/09/12 03:33:16;;;;;;;;;;;14.00;99.90;;;;;;4975119;28;19921;-74
2022/09/12 03:35:42;;;;;;;;;;;14.00;99.90;;;;;;4972306;28;19957;-74
2022/09/12 03:38:08;;;;;;;;;;;14.00;99.90;;;;;;4965209;28;19974;-74
2022/09/12 03:40:34;;;;;;;;;;;14.00;99.90;;;;;;4965207;28;20912;-74
2022/09/12 03:43:00;;;;;;;;;;;14.00;99.90;;;;;;4963292;28;19927;-74
2022/09/12 03:45:25;;;;;;;;;;;14.00;99.90;;;;;;4965494;28;19926;-74
2022/09/12 03:47:51;;;;;;;;;;;14.00;99.90;;;;;;4964831;28;19933;-74
2022/09/12 03:50:16;;;;;;;;;;;14.00;99.90;;;;;;4965034;28;20009;-74
2022/09/12 03:52:42;;;;;;;;;;;14.10;99.90;;;;;;4963262;28;19926;-74
2022/09/12 03:55:08;;;;;;;;;;;14.10;99.90;;;;;;4964904;28;20005;-74
2022/09/12 03:57:34;;;;;;;;;;;14.10;99.90;;;;;;4963733;28;19926;-74
2022/09/12 04:00:00;;;;;;;;;;;14.10;99.90;;;;;;4964960;28;19933;-74
2022/09/12 04:02:27;;;;;;;;;;;14.10;99.90;;;;;;4965062;28;19926;-74
2022/09/12 04:04:52;;;;;;;;;;;14.10;99.90;;;;;;4964552;28;20293;-74
2022/09/12 04:07:17;;;;;;;;;;;14.10;99.90;;;;;;4964671;28;19926;-74
2022/09/12 04:09:43;;;;;;;;;;;14.20;99.90;;;;;;4964559;28;19989;-74
2022/09/12 04:12:09;;;;;;;;;;;14.20;99.90;;;;;;4962690;28;19926;-74
2022/09/12 04:14:34;;;;;;;;;;;14.20;99.90;;;;;;4964354;28;20508;-74
2022/09/12 04:17:00;;;;;;;;;;;14.20;99.90;;;;;;4964659;28;20017;-75
2022/09/12 04:19:26;;;;;;;;;;;14.20;99.90;;;;;;4964849;28;19965;-74
2022/09/12 04:21:52;;;;;;;;;;;14.20;99.90;;;;;;4963926;28;19926;-74
2022/09/12 04:24:17;;;;;;;;;;;14.30;99.90;;;;;;4964887;28;19926;-74
2022/09/12 04:26:43;;;;;;;;;;;14.30;99.90;;;;;;4962567;28;19926;-74
2022/09/12 04:29:10;;;;;;;;;;;14.30;99.90;;;;;;4964236;28;20450;-74
2022/09/12 04:31:35;;;;;;;;;;;14.30;99.90;;;;;;4964210;28;20012;-75
2022/09/12 04:34:01;;;;;;;;;;;14.30;99.90;;;;;;4980762;28;20013;-75
2022/09/12 04:36:27;;;;;;;;;;;14.40;99.90;;;;;;4965263;28;19933;-75
2022/09/12 04:38:53;;;;;;;;;;;14.40;99.90;;;;;;4963491;28;19926;-74
2022/09/12 04:41:21;;;;;;;;;;;14.40;99.90;;;;;;4963168;28;19926;-75
2022/09/12 04:43:47;;;;;;;;;;;14.40;99.90;;;;;;4963849;28;20388;-74
2022/09/12 04:46:14;;;;;;;;;;;14.40;99.90;;;;;;4964561;28;19950;-74
2022/09/12 04:48:40;;;;;;;;;;;14.40;99.90;;;;;;4963867;28;19969;-74
2022/09/12 04:51:13;;;;;;;;;;;14.40;99.90;;;;;;4964279;28;20381;-74
2022/09/12 04:53:38;;;;;;;;;;;14.40;99.90;;;;;;4964281;28;19926;-75
2022/09/12 04:56:06;;;;;;;;;;;14.50;99.90;;;;;;4963982;28;19926;-74
2022/09/12 04:58:32;;;;;;;;;;;14.40;99.90;;;;;;4963248;28;19968;-74
2022/09/12 05:01:14;;;;;;;;;;;14.50;99.90;;;;;;4969797;28;20372;-75
2022/09/12 05:03:42;;;;;;;;;;;14.50;99.90;;;;;;4983254;28;19930;-75
2022/09/12 05:06:09;;;;;;;;;;;14.40;99.90;;;;;;4983256;28;19932;-74
2022/09/12 05:08:34;;;;;;;;;;;14.50;99.90;;;;;;4981647;28;19930;-75
2022/09/12 05:11:04;;;;;;;;;;;14.60;99.90;;;;;;4979808;28;19952;-74
2022/09/12 05:13:30;;;;;;;;;;;14.50;99.90;;;;;;4965135;28;19996;-74
2022/09/12 05:16:00;;;;;;;;;;;14.50;99.90;;;;;;4964055;28;19926;-74
2022/09/12 05:18:25;;;;;;;;;;;14.60;99.90;;;;;;4990874;28;19930;-74
2022/09/12 05:20:54;;;;;;;;;;;14.60;99.90;;;;;;4971488;28;19945;-76
2022/09/12 05:23:23;;;;;;;;;;;14.60;99.90;;;;;;4962484;28;19986;-76
2022/09/12 05:25:52;;;;;;;;;;;14.60;99.90;;;;;;4962785;28;19929;-75
2022/09/12 05:28:19;;;;;;;;;;;14.60;99.90;;;;;;4961687;28;19965;-75
2022/09/12 05:30:45;;;;;;;;;;;14.60;99.90;;;;;;4963247;28;19930;-74
2022/09/12 05:33:10;;;;;;;;;;;14.60;99.90;;;;;;4976548;28;19922;-75
2022/09/12 05:35:37;;;;;;;;;;;14.60;99.90;;;;;;4966605;28;19927;-74
2022/09/12 05:38:03;;;;;;;;;;;14.70;99.90;;;;;;4970281;28;19922;-73
2022/09/12 05:40:28;;;;;;;;;;;14.70;99.90;;;;;;4974928;28;19926;-73
2022/09/12 05:42:54;;;;;;;;;;;14.70;99.90;;;;;;4975547;28;19933;-75
2022/09/12 05:45:20;;;;;;;;;;;14.70;99.90;;;;;;4972942;28;19934;-75
2022/09/12 05:47:45;;;;;;;;;;;14.70;99.90;;;;;;4965776;28;19930;-74
2022/09/12 05:50:11;;;;;;;;;;;14.70;99.90;;;;;;4981770;28;20012;-75
2022/09/12 05:52:36;;;;;;;;;;;14.70;99.90;;;;;;4975517;28;20364;-75
2022/09/12 05:55:03;;;;;;;;;;;14.70;99.90;;;;;;4967979;28;19933;-75
2022/09/12 05:57:28;;;;;;;;;;;14.70;99.90;;;;;;4995001;28;19965;-75
2022/09/12 05:59:54;;;;;;;;;;;14.70;99.90;;;;;;4967781;28;20004;-77
2022/09/12 06:02:19;;;;;;;;;;;14.80;99.90;;;;;;4965137;28;19933;-80
2022/09/12 06:04:45;;;;;;;;;;;14.80;99.90;;;;;;4966580;28;20376;-80
2022/09/12 06:07:10;;;;;;;;;;;14.80;99.90;;;;;;4966953;28;19926;-80
2022/09/12 06:09:36;;;;;;;;;;;14.80;99.90;;;;;;4966490;28;20057;-80
2022/09/12 06:12:02;;;;;;;;;;;14.80;99.90;;;;;;4964628;28;20281;-80
2022/09/12 06:14:27;;;;;;;;;;;14.80;99.90;;;;;;4981534;28;20277;-80
2022/09/12 06:16:53;;;;;;;;;;;14.90;99.90;;;;;;4966020;28;20623;-80
2022/09/12 06:19:19;;;;;;;;;;;14.90;99.90;;;;;;4966331;28;19933;-80
2022/09/12 06:21:46;;;;;;;;;;;14.90;99.90;;;;;;4966199;28;19936;-80
2022/09/12 06:24:11;;;;;;;;;;;14.90;99.90;;;;;;4966261;28;20390;-80
2022/09/12 06:26:37;;;;;;;;;;;14.90;99.90;;;;;;4965504;28;19929;-80
2022/09/12 06:29:03;;;;;;;;;;;14.90;99.90;;;;;;4961749;28;19923;-80
2022/09/12 06:31:30;;;;;;;;;;;14.90;99.90;;;;;;4947564;28;20013;-80
2022/09/12 06:33:58;;;;;;;;;;;15.00;99.90;;;;;;4947410;28;20456;-80
2022/09/12 06:36:24;;;;;;;;;;;15.00;99.90;;;;;;4946764;28;20400;-80
2022/09/12 06:38:55;;;;;;;;;;;15.00;99.90;;;;;;4956802;28;19977;-81
2022/09/12 06:41:20;;;;;;;;;;;15.00;99.90;;;;;;4966939;28;19929;-80
2022/09/12 06:43:46;;;;;;;;;;;15.00;99.90;;;;;;4965012;28;19926;-80
2022/09/12 06:46:11;;;;;;;;;;;15.10;99.90;;;;;;4981622;28;20336;-79
2022/09/12 06:48:37;;;;;;;;;;;15.10;99.90;;;;;;4971580;28;19977;-79
2022/09/12 06:51:06;;;;;;;;;;;15.10;99.90;;;;;;4960549;28;20391;-79
2022/09/12 06:53:32;;;;;;;;;;;15.10;99.90;;;;;;4955344;28;19953;-79
2022/09/12 06:55:59;;;;;;;;;;;15.10;99.90;;;;;;4956924;28;19926;-78
2022/09/12 06:58:25;;;;;;;;;;;15.10;99.90;;;;;;4957008;28;19929;-79
2022/09/12 07:00:51;;;;;;;;;;;15.10;99.90;;;;;;4953463;28;20102;-78
2022/09/12 07:03:17;;;;;;;;;;;15.20;99.90;;;;;;4956917;28;19933;-78
2022/09/12 07:05:42;;;;;;;;;;;15.20;99.90;;;;;;4968557;28;19926;-79
2022/09/12 07:08:08;;;;;;;;;;;15.20;99.90;;;;;;4961724;28;19926;-80
2022/09/12 07:10:33;;;;;;;;;;;15.20;99.90;;;;;;4954281;28;20462;-80
2022/09/12 07:12:59;;;;;;;;;;;15.20;99.90;;;;;;4955305;28;22406;-79
2022/09/12 07:15:25;;;;;;;;;;;15.30;99.90;;;;;;4956739;28;19937;-78
2022/09/12 07:17:51;;;;;;;;;;;15.30;99.90;;;;;;4959737;28;19930;-78
2022/09/12 07:20:16;;;;;;;;;;;15.30;99.90;;;;;;4953439;28;19987;-79
2022/09/12 07:22:42;;;;;;;;;;;15.30;99.90;;;;;;4954080;28;19976;-79
2022/09/12 07:25:07;;;;;;;;;;;15.40;99.90;;;;;;4955218;28;20380;-79
2022/09/12 07:27:33;;;;;;;;;;;15.40;99.90;;;;;;4954578;28;19977;-79
2022/09/12 07:30:00;;;;;;;;;;;15.40;99.90;;;;;;4955123;28;19930;-79
2022/09/12 07:32:26;;;;;;;;;;;15.50;99.90;;;;;;4957848;28;19934;-78
2022/09/12 07:34:51;;;;;;;;;;;15.60;99.90;;;;;;4956395;28;19973;-80
2022/09/12 07:37:17;;;;;;;;;;;15.60;99.90;;;;;;4952858;28;20339;-80
2022/09/12 07:39:42;;;;;;;;;;;15.60;99.90;;;;;;4953999;28;20401;-80
2022/09/12 07:42:08;;;;;;;;;;;15.70;99.90;;;;;;4954125;28;19937;-80
2022/09/12 07:44:33;;;;;;;;;;;15.70;99.90;;;;;;4953717;28;20248;-80
2022/09/12 07:46:59;;;;;;;;;;;15.70;99.90;;;;;;4962480;28;19949;-79
2022/09/12 07:49:24;;;;;;;;;;;15.80;99.90;;;;;;4965102;28;19945;-78
2022/09/12 07:51:50;;;;;;;;;;;15.80;99.90;;;;;;4968916;28;20367;-78
2022/09/12 07:54:16;;;;;;;;;;;15.90;99.90;;;;;;4967231;28;19922;-79
2022/09/12 07:56:42;;;;;;;;;;;15.90;99.90;;;;;;4967792;28;19930;-79
2022/09/12 07:59:07;;;;;;;;;;;16.00;99.90;;;;;;4969467;28;19981;-79
2022/09/12 08:01:33;;;;;;;;;;;16.10;99.90;;;;;;4969777;28;19926;-74
2022/09/12 08:03:59;;;;;;;;;;;16.10;99.90;;;;;;4963948;28;19926;-74
2022/09/12 08:06:25;;;;;;;;;;;16.20;99.90;;;;;;4964096;28;19981;-74
2022/09/12 08:08:51;;;;;;;;;;;16.20;99.90;;;;;;4962631;28;19969;-74
2022/09/12 08:11:18;;;;;;;;;;;16.20;99.90;;;;;;4993315;28;19926;-74
2022/09/12 08:13:44;;;;;;;;;;;16.30;99.90;;;;;;4962210;28;20038;-74
2022/09/12 08:16:13;;;;;;;;;;;16.40;99.90;;;;;;4994852;28;19933;-74
2022/09/12 08:18:39;;;;;;;;;;;16.40;99.90;;;;;;4963086;28;19945;-74
2022/09/12 08:21:18;;;;;;;;;;;16.50;99.90;;;;;;4962593;28;19977;-75
2022/09/12 08:23:44;;;;;;;;;;;16.60;99.90;;;;;;4962974;28;19933;-74
2022/09/12 08:26:10;;;;;;;;;;;16.60;99.90;;;;;;4962834;28;20399;-75
2022/09/12 08:28:36;;;;;;;;;;;16.70;99.90;;;;;;4962002;28;19926;-75
2022/09/12 08:31:01;;;;;;;;;;;16.80;99.90;;;;;;4963181;28;20009;-74
2022/09/12 08:33:31;;;;;;;;;;;16.80;99.90;;;;;;4962184;28;19927;-75
2022/09/12 08:36:03;;;;;;;;;;;16.90;99.90;;;;;;4962316;28;19926;-75
2022/09/12 08:38:29;;;;;;;;;;;16.90;99.90;;;;;;4962345;28;19933;-75
2022/09/12 08:41:00;;;;;;;;;;;16.90;99.90;;;;;;4962935;28;19930;-74
2022/09/12 08:43:44;;;;;;;;;;;16.90;99.90;;;;;;4962082;28;19933;-74
2022/09/12 08:46:26;;;;;;;;;;;16.90;99.90;;;;;;4960944;28;19926;-75
2022/09/12 08:48:54;;;;;;;;;;;16.90;99.90;;;;;;4963250;28;19927;-75
2022/09/12 08:51:19;;;;;;;;;;;17.00;99.90;;;;;;4961310;28;19969;-75
2022/09/12 08:53:47;;;;;;;;;;;17.00;99.90;;;;;;4961743;28;19988;-75
2022/09/12 08:56:13;;;;;;;;;;;17.00;99.90;;;;;;4984657;28;19926;-75
2022/09/12 08:58:40;;;;;;;;;;;17.10;99.90;;;;;;4962365;28;20163;-74
2022/09/12 09:01:06;;;;;;;;;;;17.10;99.90;;;;;;4963147;28;19933;-74
2022/09/12 09:03:52;;;;;;;;;;;17.20;99.90;;;;;;4963284;28;20592;-74
2022/09/12 09:06:35;;;;;;;;;;;17.20;99.90;;;;;;4963517;28;19989;-78
2022/09/12 09:09:04;;;;;;;;;;;17.30;99.90;;;;;;4969196;28;19926;-75
2022/09/12 09:11:36;;;;;;;;;;;17.30;99.90;;;;;;4961805;28;19976;-75
2022/09/12 09:16:51;;;;;;;;;;;17.40;99.90;;;;;;4966436;28;20521;-77
2022/09/12 09:19:19;;;;;;;;;;;17.50;99.90;;;;;;4966983;28;19926;-76
2022/09/12 09:21:58;;;;;;;;;;;17.50;99.90;;;;;;4967337;28;20041;-75
2022/09/12 09:24:26;;;;;;;;;;;17.60;99.90;;;;;;4965897;28;20324;-79
2022/09/12 09:26:55;;;;;;;;;;;17.80;99.90;;;;;;4965332;28;19978;-78
2022/09/12 09:29:23;;;;;;;;;;;17.80;99.90;;;;;;4967486;28;19930;-76
2022/09/12 09:31:51;;;;;;;;;;;17.90;99.90;;;;;;4966398;28;20021;-78
2022/09/12 09:34:24;;;;;;;;;;;18.00;99.90;;;;;;4967409;28;19930;-77
2022/09/12 09:36:51;;;;;;;;;;;18.10;99.90;;;;;;4967615;28;19926;-76
2022/09/12 09:39:23;;;;;;;;;;;18.20;99.90;;;;;;4966716;28;19934;-76
2022/09/12 09:42:00;;;;;;;;;;;18.30;99.90;;;;;;4966452;28;19969;-75
2022/09/12 09:44:27;;;;;;;;;;;18.30;99.90;;;;;;4966826;28;20407;-76
2022/09/12 09:46:53;;;;;;;;;;;18.30;99.90;;;;;;4967060;28;20300;-76
2022/09/12 09:49:20;;;;;;;;;;;18.40;99.90;;;;;;4965859;28;20428;-76
2022/09/12 09:51:46;;;;;;;;;;;18.40;99.90;;;;;;4967084;28;20423;-76
2022/09/12 09:54:26;;;;;;;;;;;18.50;99.90;;;;;;4966985;28;19926;-76
2022/09/12 09:56:52;;;;;;;;;;;18.50;99.90;;;;;;4965893;28;19926;-76
2022/09/12 09:59:17;;;;;;;;;;;18.60;99.90;;;;;;4966675;28;19937;-76
2022/09/12 10:01:47;;;;;;;;;;;18.60;99.90;;;;;;4966164;28;19926;-76
2022/09/12 10:04:20;;;;;;;;;;;18.60;99.90;;;;;;4966649;28;19968;-76
2022/09/12 10:06:46;;;;;;;;;;;18.70;99.90;;;;;;4966600;28;19926;-76
2022/09/12 10:09:12;;;;;;;;;;;18.60;99.90;;;;;;4964368;28;20290;-76
2022/09/12 10:11:38;;;;;;;;;;;18.70;99.90;;;;;;4963582;28;19930;-76
2022/09/12 10:14:03;;;;;;;;;;;18.70;99.90;;;;;;4966329;28;20021;-76
2022/09/12 10:16:30;;;;;;;;;;;18.70;99.90;;;;;;4966006;28;20009;-74
2022/09/12 10:18:57;;;;;;;;;;;18.80;99.90;;;;;;4965590;28;19985;-75
2022/09/12 10:21:30;;;;;;;;;;;18.80;99.90;;;;;;4965379;28;19926;-75
2022/09/12 10:24:05;;;;;;;;;;;18.80;99.90;;;;;;4964681;28;19933;-75
2022/09/12 10:26:32;;;;;;;;;;;18.80;99.90;;;;;;4964296;28;20036;-76
2022/09/12 10:29:01;;;;;;;;;;;18.90;99.90;;;;;;4965901;28;19977;-75
2022/09/12 10:31:28;;;;;;;;;;;18.90;99.90;;;;;;4964626;28;20197;-75
2022/09/12 10:33:58;;;;;;;;;;;18.90;99.90;;;;;;4965405;28;20684;-76
2022/09/12 10:36:24;;;;;;;;;;;19.00;99.90;;;;;;4947744;28;19930;-75
2022/09/12 10:38:51;;;;;;;;;;;19.00;99.90;;;;;;4949538;28;19933;-76
2022/09/12 10:41:17;;;;;;;;;;;19.10;99.90;;;;;;4962855;28;19982;-76
2022/09/12 10:43:43;;;;;;;;;;;19.10;99.90;;;;;;4965019;28;19930;-74
2022/09/12 10:46:15;;;;;;;;;;;19.20;99.90;;;;;;4965102;28;19926;-76
2022/09/12 10:48:41;;;;;;;;;;;19.20;99.90;;;;;;4964774;28;19930;-76
2022/09/12 10:51:13;;;;;;;;;;;19.30;99.90;;;;;;4965102;28;19925;-76
2022/09/12 10:53:40;;;;;;;;;;;19.30;99.90;;;;;;4964691;28;20009;-74
2022/09/12 10:56:05;;;;;;;;;;;19.40;99.90;;;;;;4963982;28;20140;-75
2022/09/12 10:58:50;;;;;;;;;;;19.40;99.90;;;;;;4963261;28;19933;-75
2022/09/12 11:01:30;;;;;;;;;;;19.40;99.90;;;;;;4964328;28;19928;-75
2022/09/12 11:04:14;;;;;;;;;;;19.40;99.90;;;;;;4965334;28;19962;-74
2022/09/12 11:06:49;;;;;;;;;;;19.40;99.90;;;;;;4964582;28;19936;-75
2022/09/12 11:09:21;;;;;;;;;;;19.40;99.90;;;;;;4963001;28;19973;-74
2022/09/12 11:12:02;;;;;;;;;;;19.40;99.90;;;;;;4963663;28;19981;-75
2022/09/12 11:15:03;;;;;;;;;;;19.40;99.90;;;;;;4964903;28;19926;-75
2022/09/12 11:17:48;;;;;;;;;;;19.40;99.90;;;;;;4965150;28;19940;-75
2022/09/12 11:20:33;;;;;;;;;;;19.50;99.90;;;;;;4937689;28;19930;-75
2022/09/12 11:23:10;;;;;;;;;;;19.50;99.90;;;;;;4963561;28;19927;-74
2022/09/12 11:25:44;;;;;;;;;;;19.50;99.90;;;;;;4960428;28;19972;-75
2022/09/12 11:28:28;;;;;;;;;;;19.60;99.90;;;;;;4953768;28;19933;-75
2022/09/12 11:31:14;;;;;;;;;;;19.60;99.90;;;;;;4945828;29;19927;-75
2022/09/12 11:33:42;;;;;;;;;;;19.70;99.90;;;;;;4963189;28;19976;-75
2022/09/12 11:36:14;;;;;;;;;;;19.80;99.90;;;;;;4962874;28;19926;-75
2022/09/12 11:38:51;;;;;;;;;;;19.80;99.90;;;;;;4964276;28;20444;-75
2022/09/12 11:41:21;;;;;;;;;;;19.90;99.90;;;;;;4964368;28;19926;-75
2022/09/12 11:43:50;;;;;;;;;;;20.00;99.90;;;;;;4963481;28;19926;-75
2022/09/12 11:46:16;;;;;;;;;;;20.00;99.90;;;;;;4995299;28;19926;-75
2022/09/12 11:49:01;;;;;;;;;;;20.00;99.90;;;;;;4963525;28;20372;-75
2022/09/12 11:51:28;;;;;;;;;;;20.10;99.90;;;;;;4962708;28;20162;-75
2022/09/12 11:54:08;;;;;;;;;;;20.10;99.90;;;;;;4964888;28;20012;-75
2022/09/12 11:56:36;;;;;;;;;;;20.10;99.90;;;;;;4963336;28;19926;-75
2022/09/12 11:59:08;;;;;;;;;;;20.10;99.90;;;;;;4962563;28;19972;-75
2022/09/12 12:01:42;;;;;;;;;;;20.10;99.90;;;;;;4963549;28;19973;-75
2022/09/12 12:04:11;;;;;;;;;;;20.10;99.90;;;;;;4963813;28;19926;-75
2022/09/12 12:06:50;;;;;;;;;;;20.10;99.90;;;;;;4961733;28;19930;-75
2022/09/12 12:09:16;;;;;;;;;;;20.10;99.90;;;;;;4963255;28;19930;-75
2022/09/12 12:11:46;;;;;;;;;;;20.10;99.90;;;;;;4962336;28;19926;-75
2022/09/12 12:14:23;;;;;;;;;;;20.20;99.90;;;;;;4963619;28;19926;-75
2022/09/12 12:16:49;;;;;;;;;;;20.20;99.90;;;;;;4963250;28;19937;-75
2022/09/12 12:19:14;;;;;;;;;;;20.20;99.90;;;;;;4963261;28;19926;-75
2022/09/12 12:21:43;;;;;;;;;;;20.30;99.90;;;;;;4962407;28;19926;-75
2022/09/12 12:24:09;;;;;;;;;;;20.30;99.90;;;;;;4961238;28;19934;-75
2022/09/12 12:26:37;;;;;;;;;;;20.30;99.90;;;;;;4960945;28;19933;-75
2022/09/12 12:29:03;;;;;;;;;;;20.40;99.90;;;;;;4962389;28;20163;-75
2022/09/12 12:31:29;;;;;;;;;;;20.50;99.90;;;;;;4964078;28;19926;-74
2022/09/12 12:33:59;;;;;;;;;;;20.50;99.90;;;;;;4963900;28;19926;-74
2022/09/12 12:36:29;;;;;;;;;;;20.50;99.90;;;;;;4947031;28;19938;-74
2022/09/12 12:38:55;;;;;;;;;;;20.60;99.90;;;;;;4943350;28;20596;-73
2022/09/12 12:41:20;;;;;;;;;;;20.60;99.90;;;;;;4961485;28;19973;-73
2022/09/12 12:43:46;;;;;;;;;;;20.70;99.90;;;;;;4962256;28;19980;-77
2022/09/12 12:46:13;;;;;;;;;;;20.70;99.90;;;;;;4962453;28;19989;-77
2022/09/12 12:48:48;;;;;;;;;;;20.70;99.90;;;;;;4962387;28;19934;-77
2022/09/12 12:51:16;;;;;;;;;;;20.70;99.90;;;;;;4961897;28;19930;-77
2022/09/12 12:53:41;;;;;;;;;;;20.70;99.90;;;;;;4962554;28;19926;-77
2022/09/12 12:56:23;;;;;;;;;;;20.80;99.90;;;;;;4962052;28;19969;-77
2022/09/12 12:58:56;;;;;;;;;;;20.80;99.90;;;;;;4961480;28;20261;-77
2022/09/12 13:01:21;;;;;;;;;;;20.80;99.90;;;;;;4962674;28;19930;-77
2022/09/12 13:03:53;;;;;;;;;;;20.80;99.90;;;;;;4962845;28;19980;-77
2022/09/12 13:06:31;;;;;;;;;;;20.90;99.90;;;;;;4962878;28;19922;-77
2022/09/12 13:09:07;;;;;;;;;;;20.90;99.90;;;;;;4963504;28;19926;-77
2022/09/12 13:11:35;;;;;;;;;;;20.90;99.90;;;;;;4992660;28;19930;-77
2022/09/12 13:14:03;;;;;;;;;;;20.90;99.90;;;;;;4962980;28;20336;-78
2022/09/12 13:16:30;;;;;;;;;;;21.00;99.90;;;;;;4962464;28;20142;-77
2022/09/12 13:18:56;;;;;;;;;;;21.00;99.90;;;;;;4962944;28;19933;-77
2022/09/12 13:21:22;;;;;;;;;;;21.00;99.90;;;;;;4962774;28;19934;-77
2022/09/12 13:24:02;;;;;;;;;;;21.00;99.90;;;;;;4964086;28;20011;-75
2022/09/12 13:26:31;;;;;;;;;;;21.00;99.90;;;;;;4962923;28;19926;-76
2022/09/12 13:29:09;;;;;;;;;;;21.00;99.90;;;;;;4964065;28;20413;-76
2022/09/12 13:31:34;;;;;;;;;;;21.00;99.90;;;;;;4963077;28;20488;-77
2022/09/12 13:34:02;;;;;;;;;;;21.00;99.90;;;;;;4963943;28;20021;-77
2022/09/12 13:36:28;;;;;;;;;;;21.00;99.90;;;;;;4945825;28;19926;-77
2022/09/12 13:39:04;;;;;;;;;;;21.00;99.90;;;;;;4944026;28;19926;-77
2022/09/12 13:41:32;;;;;;;;;;;21.10;99.90;;;;;;4946840;28;20001;-77
2022/09/12 13:43:59;;;;;;;;;;;21.00;99.90;;;;;;4964311;28;20098;-77
2022/09/12 13:46:32;;;;;;;;;;;21.10;99.90;;;;;;4962527;28;19934;-77
2022/09/12 13:49:00;;;;;;;;;;;21.10;99.90;;;;;;4962534;28;20009;-76
2022/09/12 13:51:27;;;;;;;;;;;21.20;99.90;;;;;;4962674;28;19926;-78
2022/09/12 13:53:55;;;;;;;;;;;21.10;99.90;;;;;;4978370;28;19926;-76
2022/09/12 13:56:20;;;;;;;;;;;21.10;99.90;;;;;;4960878;28;19958;-75
2022/09/12 13:58:56;;;;;;;;;;;21.10;99.90;;;;;;4964115;28;19926;-76
2022/09/12 14:01:23;;;;;;;;;;;21.20;99.90;;;;;;4965620;28;19981;-76
2022/09/12 14:06:56;;;;;;;;;;;21.20;99.90;;;;;;4959170;28;19926;-76
2022/09/12 14:09:23;;;;;;;;;;;21.20;99.90;;;;;;4965814;28;19937;-76
2022/09/12 14:11:50;;;;;;;;;;;21.30;99.90;;;;;;4964627;28;19926;-75
2022/09/12 14:14:36;;;;;;;;;;;21.30;99.90;;;;;;4966035;28;19926;-76
2022/09/12 14:17:22;;;;;;;;;;;21.30;99.90;;;;;;4965169;28;20420;-76
2022/09/12 14:19:48;;;;;;;;;;;21.30;99.90;;;;;;4965161;28;19957;-76
2022/09/12 14:22:16;;;;;;;;;;;21.40;99.90;;;;;;4965588;28;19926;-75
2022/09/12 14:24:49;;;;;;;;;;;21.40;99.90;;;;;;4964801;28;19926;-77
2022/09/12 14:27:19;;;;;;;;;;;21.50;99.90;;;;;;4996281;28;19938;-75
2022/09/12 14:29:46;;;;;;;;;;;21.50;99.90;;;;;;4955119;28;19930;-76
2022/09/12 14:32:19;;;;;;;;;;;21.50;99.90;;;;;;4965037;28;19927;-76
2022/09/12 14:35:03;;;;;;;;;;;21.50;99.90;;;;;;4948501;28;21031;-75